sensor_id;sensor_type;location;lat;lon;timestamp;pressure;altitude;pressure_sealevel;temperature;humidity
5755;BME280;2902;42.130;24.732;2022-08-21T00:01:21;98825.00;;;24.33;92.93
5755;BME280;2902;42.130;24.732;2022-08-21T00:03:49;98845.13;;;24.32;92.02
5755;BME280;2902;42.130;24.732;2022-08-21T00:06:16;98848.44;;;24.29;92.43
5755;BME280;2902;42.130;24.732;2022-08-21T00:08:43;98853.97;;;24.24;92.13
5755;BME280;2902;42.130;24.732;2022-08-21T00:11:11;98846.72;;;24.20;91.92
5755;BME280;2902;42.130;24.732;2022-08-21T00:13:39;98828.69;;;24.10;91.63
5755;BME280;2902;42.130;24.732;2022-08-21T00:16:05;98835.06;;;24.19;92.07
5755;BME280;2902;42.130;24.732;2022-08-21T00:18:32;98836.44;;;24.17;91.79
5755;BME280;2902;42.130;24.732;2022-08-21T00:20:59;98825.22;;;24.23;92.93
5755;BME280;2902;42.130;24.732;2022-08-21T00:23:26;98827.63;;;24.38;90.52
5755;BME280;2902;42.130;24.732;2022-08-21T00:25:53;98820.38;;;24.34;90.00
5755;BME280;2902;42.130;24.732;2022-08-21T00:28:21;98823.59;;;24.36;90.78
5755;BME280;2902;42.130;24.732;2022-08-21T00:30:48;98819.75;;;24.37;90.84
5755;BME280;2902;42.130;24.732;2022-08-21T00:33:14;98818.75;;;24.33;92.48
5755;BME280;2902;42.130;24.732;2022-08-21T00:35:42;98820.56;;;24.24;93.47
5755;BME280;2902;42.130;24.732;2022-08-21T00:38:12;98821.38;;;24.24;93.44
5755;BME280;2902;42.130;24.732;2022-08-21T00:40:43;98810.94;;;24.18;93.12
5755;BME280;2902;42.130;24.732;2022-08-21T00:43:12;98792.91;;;24.08;92.41
5755;BME280;2902;42.130;24.732;2022-08-21T00:45:41;98790.91;;;24.00;91.07
5755;BME280;2902;42.130;24.732;2022-08-21T00:48:08;98795.53;;;24.13;90.91
5755;BME280;2902;42.130;24.732;2022-08-21T00:50:38;98801.69;;;24.32;91.55
5755;BME280;2902;42.130;24.732;2022-08-21T00:53:06;98808.50;;;24.43;92.16
5755;BME280;2902;42.130;24.732;2022-08-21T00:55:35;98815.75;;;24.48;91.65
5755;BME280;2902;42.130;24.732;2022-08-21T00:58:05;98816.28;;;24.50;91.84
5755;BME280;2902;42.130;24.732;2022-08-21T01:00:35;98808.50;;;24.43;91.65
5755;BME280;2902;42.130;24.732;2022-08-21T01:03:09;98782.28;;;24.25;93.16
5755;BME280;2902;42.130;24.732;2022-08-21T01:05:37;98801.38;;;24.34;92.88
5755;BME280;2902;42.130;24.732;2022-08-21T01:08:04;98800.09;;;24.31;92.33
5755;BME280;2902;42.130;24.732;2022-08-21T01:10:33;98801.28;;;24.25;91.98
5755;BME280;2902;42.130;24.732;2022-08-21T01:13:01;98797.16;;;24.28;94.13
5755;BME280;2902;42.130;24.732;2022-08-21T01:15:30;98787.41;;;24.40;92.60
5755;BME280;2902;42.130;24.732;2022-08-21T01:17:59;98778.31;;;24.58;89.97
5755;BME280;2902;42.130;24.732;2022-08-21T01:20:28;98780.53;;;24.70;90.55
5755;BME280;2902;42.130;24.732;2022-08-21T01:22:56;98771.31;;;24.71;90.19
5755;BME280;2902;42.130;24.732;2022-08-21T01:25:23;98781.97;;;24.67;90.98
5755;BME280;2902;42.130;24.732;2022-08-21T01:27:50;98778.31;;;24.58;90.72
5755;BME280;2902;42.130;24.732;2022-08-21T01:30:19;98772.19;;;24.53;91.21
5755;BME280;2902;42.130;24.732;2022-08-21T01:32:47;98762.34;;;24.43;91.23
5755;BME280;2902;42.130;24.732;2022-08-21T01:35:15;98759.53;;;24.48;92.29
5755;BME280;2902;42.130;24.732;2022-08-21T01:37:43;98757.16;;;24.60;91.14
5755;BME280;2902;42.130;24.732;2022-08-21T01:40:12;98762.56;;;24.33;91.99
5755;BME280;2902;42.130;24.732;2022-08-21T01:42:39;98766.28;;;24.37;92.29
5755;BME280;2902;42.130;24.732;2022-08-21T01:45:07;98766.50;;;24.27;91.91
5755;BME280;2902;42.130;24.732;2022-08-21T01:47:35;98768.50;;;24.08;93.96
5755;BME280;2902;42.130;24.732;2022-08-21T01:50:03;98774.03;;;24.03;94.64
5755;BME280;2902;42.130;24.732;2022-08-21T01:52:30;98777.69;;;23.80;94.00
5755;BME280;2902;42.130;24.732;2022-08-21T01:54:57;98788.44;;;23.53;96.18
5755;BME280;2902;42.130;24.732;2022-08-21T01:57:25;98803.84;;;23.58;98.27
5755;BME280;2902;42.130;24.732;2022-08-21T01:59:52;98824.72;;;23.25;98.35
5755;BME280;2902;42.130;24.732;2022-08-21T02:02:19;98826.47;;;22.74;100.00
5755;BME280;2902;42.130;24.732;2022-08-21T02:04:45;98833.69;;;22.60;100.00
5755;BME280;2902;42.130;24.732;2022-08-21T02:07:12;98836.34;;;22.65;100.00
5755;BME280;2902;42.130;24.732;2022-08-21T02:09:40;98829.88;;;22.61;100.00
5755;BME280;2902;42.130;24.732;2022-08-21T02:12:07;98818.34;;;22.74;100.00
5755;BME280;2902;42.130;24.732;2022-08-21T02:14:35;98818.16;;;23.08;100.00
5755;BME280;2902;42.130;24.732;2022-08-21T02:17:02;98813.91;;;23.39;99.35
5755;BME280;2902;42.130;24.732;2022-08-21T02:19:29;98830.88;;;23.63;98.68
5755;BME280;2902;42.130;24.732;2022-08-21T02:21:56;98838.28;;;23.89;96.23
5755;BME280;2902;42.130;24.732;2022-08-21T02:24:23;98835.03;;;24.06;94.71
5755;BME280;2902;42.130;24.732;2022-08-21T02:26:49;98844.91;;;24.15;93.85
5755;BME280;2902;42.130;24.732;2022-08-21T02:29:16;98840.56;;;24.14;93.29
5755;BME280;2902;42.130;24.732;2022-08-21T02:31:44;98846.56;;;23.98;93.56
5755;BME280;2902;42.130;24.732;2022-08-21T02:34:11;98846.41;;;23.89;95.38
5755;BME280;2902;42.130;24.732;2022-08-21T02:36:37;98848.88;;;23.91;95.31
5755;BME280;2902;42.130;24.732;2022-08-21T02:39:04;98856.78;;;23.87;96.38
5755;BME280;2902;42.130;24.732;2022-08-21T02:41:31;98859.25;;;23.84;96.22
5755;BME280;2902;42.130;24.732;2022-08-21T02:43:58;98858.56;;;23.78;95.79
5755;BME280;2902;42.130;24.732;2022-08-21T02:46:24;98863.47;;;23.76;95.08
5755;BME280;2902;42.130;24.732;2022-08-21T02:48:52;98860.94;;;23.80;96.25
5755;BME280;2902;42.130;24.732;2022-08-21T02:51:19;98865.34;;;23.76;95.62
5755;BME280;2902;42.130;24.732;2022-08-21T02:53:48;98848.78;;;23.77;95.60
5755;BME280;2902;42.130;24.732;2022-08-21T02:56:18;98854.94;;;23.83;95.68
5755;BME280;2902;42.130;24.732;2022-08-21T02:58:47;98847.69;;;23.97;94.22
5755;BME280;2902;42.130;24.732;2022-08-21T03:01:14;98845.69;;;24.16;93.67
5755;BME280;2902;42.130;24.732;2022-08-21T03:03:42;98854.38;;;24.31;91.95
5755;BME280;2902;42.130;24.732;2022-08-21T03:06:13;98851.94;;;24.43;91.25
5755;BME280;2902;42.130;24.732;2022-08-21T03:08:40;98857.41;;;24.70;89.92
5755;BME280;2902;42.130;24.732;2022-08-21T03:11:10;98862.44;;;24.90;88.75
5755;BME280;2902;42.130;24.732;2022-08-21T03:13:37;98868.28;;;24.98;89.10
5755;BME280;2902;42.130;24.732;2022-08-21T03:16:05;98869.56;;;25.00;88.94
5755;BME280;2902;42.130;24.732;2022-08-21T03:18:33;98872.47;;;25.03;88.13
5755;BME280;2902;42.130;24.732;2022-08-21T03:21:01;98864.84;;;25.06;87.77
5755;BME280;2902;42.130;24.732;2022-08-21T03:23:29;98867.63;;;25.00;88.96
5755;BME280;2902;42.130;24.732;2022-08-21T03:25:56;98862.44;;;24.90;88.79
5755;BME280;2902;42.130;24.732;2022-08-21T03:28:23;98871.59;;;24.81;90.24
5755;BME280;2902;42.130;24.732;2022-08-21T03:30:51;98871.41;;;24.77;89.82
5755;BME280;2902;42.130;24.732;2022-08-21T03:33:19;98868.88;;;24.67;90.08
5755;BME280;2902;42.130;24.732;2022-08-21T03:35:58;98862.53;;;24.58;90.78
5755;BME280;2902;42.130;24.732;2022-08-21T03:38:27;98861.81;;;24.53;90.92
5755;BME280;2902;42.130;24.732;2022-08-21T03:40:56;98859.41;;;24.38;91.43
5755;BME280;2902;42.130;24.732;2022-08-21T03:43:22;98859.81;;;24.31;91.43
5755;BME280;2902;42.130;24.732;2022-08-21T03:45:49;98862.41;;;24.23;92.27
5755;BME280;2902;42.130;24.732;2022-08-21T03:48:16;98864.28;;;24.22;92.84
5755;BME280;2902;42.130;24.732;2022-08-21T03:50:43;98870.84;;;24.21;93.95
5755;BME280;2902;42.130;24.732;2022-08-21T03:53:13;98882.28;;;24.18;94.17
5755;BME280;2902;42.130;24.732;2022-08-21T03:55:40;98881.06;;;24.11;93.67
5755;BME280;2902;42.130;24.732;2022-08-21T03:58:08;98871.44;;;24.05;93.07
5755;BME280;2902;42.130;24.732;2022-08-21T04:00:35;98876.63;;;24.01;93.41
5755;BME280;2902;42.130;24.732;2022-08-21T04:03:02;98875.59;;;23.97;93.38
5755;BME280;2902;42.130;24.732;2022-08-21T04:05:29;98876.53;;;23.93;94.17
5755;BME280;2902;42.130;24.732;2022-08-21T04:07:58;98884.38;;;23.89;93.23
5755;BME280;2902;42.130;24.732;2022-08-21T04:10:25;98869.75;;;23.90;94.15
5755;BME280;2902;42.130;24.732;2022-08-21T04:12:53;98881.31;;;23.96;93.92
5755;BME280;2902;42.130;24.732;2022-08-21T04:15:23;98883.53;;;23.94;94.30
5755;BME280;2902;42.130;24.732;2022-08-21T04:17:51;98873.47;;;23.94;94.56
5755;BME280;2902;42.130;24.732;2022-08-21T04:20:18;98886.03;;;23.90;93.77
5755;BME280;2902;42.130;24.732;2022-08-21T04:22:47;98886.97;;;23.99;94.44
5755;BME280;2902;42.130;24.732;2022-08-21T04:25:15;98876.84;;;24.05;93.10
5755;BME280;2902;42.130;24.732;2022-08-21T04:27:41;98885.47;;;24.07;92.13
5755;BME280;2902;42.130;24.732;2022-08-21T04:30:10;98890.19;;;24.01;91.55
5755;BME280;2902;42.130;24.732;2022-08-21T04:32:38;98883.13;;;23.68;93.66
5755;BME280;2902;42.130;24.732;2022-08-21T04:35:07;98874.88;;;23.60;95.22
5755;BME280;2902;42.130;24.732;2022-08-21T04:37:34;98868.53;;;23.64;96.22
5755;BME280;2902;42.130;24.732;2022-08-21T04:40:02;98875.41;;;23.75;94.40
5755;BME280;2902;42.130;24.732;2022-08-21T04:42:29;98868.38;;;23.74;93.88
5755;BME280;2902;42.130;24.732;2022-08-21T04:44:56;98868.16;;;23.71;94.42
5755;BME280;2902;42.130;24.732;2022-08-21T04:47:23;98864.44;;;23.67;94.52
5755;BME280;2902;42.130;24.732;2022-08-21T04:49:52;98853.19;;;23.73;95.41
5755;BME280;2902;42.130;24.732;2022-08-21T04:52:21;98850.81;;;23.85;94.40
5755;BME280;2902;42.130;24.732;2022-08-21T04:54:50;98847.81;;;23.87;94.13
5755;BME280;2902;42.130;24.732;2022-08-21T04:57:18;98842.97;;;23.84;94.21
5755;BME280;2902;42.130;24.732;2022-08-21T04:59:48;98840.19;;;23.89;94.34
5755;BME280;2902;42.130;24.732;2022-08-21T05:02:16;98838.63;;;24.01;93.34
5755;BME280;2902;42.130;24.732;2022-08-21T05:04:46;98847.28;;;24.03;93.44
5755;BME280;2902;42.130;24.732;2022-08-21T05:07:19;98854.31;;;24.04;94.68
5755;BME280;2902;42.130;24.732;2022-08-21T05:09:46;98849.28;;;23.98;95.19
5755;BME280;2902;42.130;24.732;2022-08-21T05:12:13;98844.75;;;23.93;95.23
5755;BME280;2902;42.130;24.732;2022-08-21T05:14:40;98832.00;;;23.94;95.38
5755;BME280;2902;42.130;24.732;2022-08-21T05:17:08;98842.03;;;23.93;94.19
5755;BME280;2902;42.130;24.732;2022-08-21T05:19:35;98835.81;;;23.93;93.90
5755;BME280;2902;42.130;24.732;2022-08-21T05:22:02;98830.59;;;23.96;94.52
5755;BME280;2902;42.130;24.732;2022-08-21T05:24:30;98824.56;;;23.99;94.60
5755;BME280;2902;42.130;24.732;2022-08-21T05:26:57;98825.09;;;24.28;92.87
5755;BME280;2902;42.130;24.732;2022-08-21T05:29:24;98834.69;;;24.66;89.23
5755;BME280;2902;42.130;24.732;2022-08-21T05:31:51;98843.91;;;24.92;88.04
5755;BME280;2902;42.130;24.732;2022-08-21T05:34:20;98843.66;;;25.16;86.62
5755;BME280;2902;42.130;24.732;2022-08-21T05:36:47;98848.72;;;25.45;84.69
5755;BME280;2902;42.130;24.732;2022-08-21T05:39:14;98853.31;;;25.58;85.62
5755;BME280;2902;42.130;24.732;2022-08-21T05:41:42;98855.78;;;25.68;84.48
5755;BME280;2902;42.130;24.732;2022-08-21T05:44:09;98854.47;;;25.87;82.02
5755;BME280;2902;42.130;24.732;2022-08-21T05:46:35;98851.44;;;25.89;83.72
5755;BME280;2902;42.130;24.732;2022-08-21T05:49:02;98849.13;;;25.52;83.87
5755;BME280;2902;42.130;24.732;2022-08-21T05:51:29;98854.13;;;25.58;83.78
5755;BME280;2902;42.130;24.732;2022-08-21T05:53:56;98859.38;;;25.55;84.15
5755;BME280;2902;42.130;24.732;2022-08-21T05:56:23;98850.97;;;25.43;82.74
5755;BME280;2902;42.130;24.732;2022-08-21T05:58:51;98863.31;;;25.49;83.45
5755;BME280;2902;42.130;24.732;2022-08-21T06:01:18;98869.81;;;25.83;81.32
5755;BME280;2902;42.130;24.732;2022-08-21T06:03:45;98870.50;;;26.11;79.80
5755;BME280;2902;42.130;24.732;2022-08-21T06:06:12;98879.13;;;26.35;78.95
5755;BME280;2902;42.130;24.732;2022-08-21T06:08:39;98870.03;;;26.48;78.19
5755;BME280;2902;42.130;24.732;2022-08-21T06:11:06;98880.56;;;26.63;77.21
5755;BME280;2902;42.130;24.732;2022-08-21T06:13:33;98879.16;;;26.74;77.06
5755;BME280;2902;42.130;24.732;2022-08-21T06:16:03;98876.59;;;26.77;77.95
5755;BME280;2902;42.130;24.732;2022-08-21T06:18:31;98886.88;;;26.89;75.86
5755;BME280;2902;42.130;24.732;2022-08-21T06:20:58;98883.06;;;26.90;76.98
5755;BME280;2902;42.130;24.732;2022-08-21T06:23:25;98880.31;;;26.51;77.36
5755;BME280;2902;42.130;24.732;2022-08-21T06:25:51;98882.47;;;26.32;79.87
5755;BME280;2902;42.130;24.732;2022-08-21T06:28:18;98870.88;;;26.18;81.38
5755;BME280;2902;42.130;24.732;2022-08-21T06:30:45;98875.94;;;25.89;83.00
5755;BME280;2902;42.130;24.732;2022-08-21T06:33:13;98867.41;;;25.60;83.90
5755;BME280;2902;42.130;24.732;2022-08-21T06:35:40;98859.13;;;25.43;85.90
5755;BME280;2902;42.130;24.732;2022-08-21T06:38:07;98866.28;;;25.39;86.07
5755;BME280;2902;42.130;24.732;2022-08-21T06:40:34;98865.16;;;25.40;87.33
5755;BME280;2902;42.130;24.732;2022-08-21T06:43:06;98843.53;;;25.35;86.13
5755;BME280;2902;42.130;24.732;2022-08-21T06:45:33;98853.69;;;25.43;85.75
5755;BME280;2902;42.130;24.732;2022-08-21T06:48:00;98851.75;;;25.43;87.13
5755;BME280;2902;42.130;24.732;2022-08-21T06:50:28;98850.53;;;25.71;84.92
5755;BME280;2902;42.130;24.732;2022-08-21T06:52:59;98851.84;;;25.96;81.17
5755;BME280;2902;42.130;24.732;2022-08-21T06:55:26;98837.59;;;25.99;80.47
5755;BME280;2902;42.130;24.732;2022-08-21T06:57:53;98847.56;;;26.03;79.78
5755;BME280;2902;42.130;24.732;2022-08-21T07:00:20;98844.25;;;26.15;80.57
5755;BME280;2902;42.130;24.732;2022-08-21T07:02:47;98837.38;;;26.17;81.42
5755;BME280;2902;42.130;24.732;2022-08-21T07:05:14;98842.72;;;26.31;80.54
5755;BME280;2902;42.130;24.732;2022-08-21T07:07:42;98839.94;;;26.53;78.83
5755;BME280;2902;42.130;24.732;2022-08-21T07:10:10;98845.19;;;26.80;77.72
5755;BME280;2902;42.130;24.732;2022-08-21T07:12:36;98848.91;;;26.92;76.71
5755;BME280;2902;42.130;24.732;2022-08-21T07:15:04;98845.84;;;26.94;76.21
5755;BME280;2902;42.130;24.732;2022-08-21T07:17:31;98846.81;;;26.98;nan
5755;BME280;2902;42.130;24.732;2022-08-21T07:19:58;98842.19;;;26.90;77.78
5755;BME280;2902;42.130;24.732;2022-08-21T07:22:25;98848.84;;;26.67;78.27
5755;BME280;2902;42.130;24.732;2022-08-21T07:24:54;98844.50;;;26.66;78.56
5755;BME280;2902;42.130;24.732;2022-08-21T07:27:21;98844.84;;;26.73;77.99
5755;BME280;2902;42.130;24.732;2022-08-21T07:29:47;98837.63;;;26.77;77.92
5755;BME280;2902;42.130;24.732;2022-08-21T07:32:14;98838.09;;;26.70;77.88
5755;BME280;2902;42.130;24.732;2022-08-21T07:34:42;98842.59;;;26.75;76.16
5755;BME280;2902;42.130;24.732;2022-08-21T07:37:09;98833.47;;;26.71;76.18
5755;BME280;2902;42.130;24.732;2022-08-21T07:39:36;98858.00;;;26.71;68.84
5755;BME280;2902;42.130;24.732;2022-08-21T07:42:04;98826.59;;;26.82;72.24
5755;BME280;2902;42.130;24.732;2022-08-21T07:44:31;98822.13;;;26.86;73.57
5755;BME280;2902;42.130;24.732;2022-08-21T07:46:59;98819.88;;;26.88;77.14
5755;BME280;2902;42.130;24.732;2022-08-21T07:49:26;98823.81;;;26.65;77.75
5755;BME280;2902;42.130;24.732;2022-08-21T07:51:53;98827.06;;;26.36;78.74
5755;BME280;2902;42.130;24.732;2022-08-21T07:54:20;98820.81;;;26.05;80.23
5755;BME280;2902;42.130;24.732;2022-08-21T07:56:47;98826.09;;;25.80;80.87
5755;BME280;2902;42.130;24.732;2022-08-21T07:59:15;98829.59;;;25.72;81.24
5755;BME280;2902;42.130;24.732;2022-08-21T08:01:41;98832.06;;;25.60;82.30
5755;BME280;2902;42.130;24.732;2022-08-21T08:04:08;98833.28;;;25.54;83.34
5755;BME280;2902;42.130;24.732;2022-08-21T08:06:35;98837.72;;;25.50;83.03
5755;BME280;2902;42.130;24.732;2022-08-21T08:09:02;98831.00;;;25.47;82.50
5755;BME280;2902;42.130;24.732;2022-08-21T08:11:30;98818.84;;;25.31;83.16
5755;BME280;2902;42.130;24.732;2022-08-21T08:13:56;98816.84;;;25.23;83.84
5755;BME280;2902;42.130;24.732;2022-08-21T08:16:26;98814.06;;;25.15;85.22
5755;BME280;2902;42.130;24.732;2022-08-21T08:18:53;98816.28;;;25.13;84.59
5755;BME280;2902;42.130;24.732;2022-08-21T08:21:21;98811.34;;;25.15;85.16
5755;BME280;2902;42.130;24.732;2022-08-21T08:23:48;98822.06;;;24.98;86.20
5755;BME280;2902;42.130;24.732;2022-08-21T08:26:15;98801.34;;;24.88;86.84
5755;BME280;2902;42.130;24.732;2022-08-21T08:28:42;98817.72;;;24.96;86.96
5755;BME280;2902;42.130;24.732;2022-08-21T08:31:09;98812.81;;;24.85;88.18
5755;BME280;2902;42.130;24.732;2022-08-21T08:33:37;98805.97;;;24.87;87.18
5755;BME280;2902;42.130;24.732;2022-08-21T08:36:05;98806.63;;;24.71;86.75
5755;BME280;2902;42.130;24.732;2022-08-21T08:38:32;98799.25;;;24.71;87.06
5755;BME280;2902;42.130;24.732;2022-08-21T08:41:01;98798.44;;;24.57;88.09
5755;BME280;2902;42.130;24.732;2022-08-21T08:43:30;98798.56;;;24.52;88.60
5755;BME280;2902;42.130;24.732;2022-08-21T08:46:03;98796.56;;;24.44;86.91
5755;BME280;2902;42.130;24.732;2022-08-21T08:48:39;98795.03;;;24.52;87.61
5755;BME280;2902;42.130;24.732;2022-08-21T08:51:12;98790.31;;;24.57;87.63
5755;BME280;2902;42.130;24.732;2022-08-21T08:53:47;98788.88;;;24.60;87.27
5755;BME280;2902;42.130;24.732;2022-08-21T08:56:18;98790.78;;;24.59;87.67
5755;BME280;2902;42.130;24.732;2022-08-21T08:58:48;98784.19;;;24.65;88.02
5755;BME280;2902;42.130;24.732;2022-08-21T09:01:19;98779.53;;;24.79;88.78
5755;BME280;2902;42.130;24.732;2022-08-21T09:03:49;98781.59;;;24.96;87.40
5755;BME280;2902;42.130;24.732;2022-08-21T09:06:28;98782.31;;;25.02;86.76
5755;BME280;2902;42.130;24.732;2022-08-21T09:09:10;98781.94;;;25.17;86.28
5755;BME280;2902;42.130;24.732;2022-08-21T09:11:45;98782.31;;;25.24;87.38
5755;BME280;2902;42.130;24.732;2022-08-21T09:14:24;98781.84;;;25.44;85.91
5755;BME280;2902;42.130;24.732;2022-08-21T09:16:59;98778.63;;;25.42;83.68
5755;BME280;2902;42.130;24.732;2022-08-21T09:19:39;98771.22;;;25.56;82.99
5755;BME280;2902;42.130;24.732;2022-08-21T09:22:16;98774.25;;;25.54;82.23
5755;BME280;2902;42.130;24.732;2022-08-21T09:24:56;98761.63;;;25.58;82.83
5755;BME280;2902;42.130;24.732;2022-08-21T09:27:29;98773.53;;;25.71;81.69
5755;BME280;2902;42.130;24.732;2022-08-21T09:29:57;98763.38;;;25.85;81.36
5755;BME280;2902;42.130;24.732;2022-08-21T09:32:26;98761.59;;;26.02;80.53
5755;BME280;2902;42.130;24.732;2022-08-21T09:35:00;98764.06;;;26.29;78.71
5755;BME280;2902;42.130;24.732;2022-08-21T09:37:29;98759.09;;;26.23;76.82
5755;BME280;2902;42.130;24.732;2022-08-21T09:39:57;98757.03;;;26.28;76.85
5755;BME280;2902;42.130;24.732;2022-08-21T09:42:26;98751.47;;;26.50;77.40
5755;BME280;2902;42.130;24.732;2022-08-21T09:45:10;98759.88;;;26.71;76.57
5755;BME280;2902;42.130;24.732;2022-08-21T09:47:37;98749.00;;;26.88;77.52
5755;BME280;2902;42.130;24.732;2022-08-21T09:50:11;98747.88;;;26.97;76.62
5755;BME280;2902;42.130;24.732;2022-08-21T09:52:44;98754.63;;;27.00;76.81
5755;BME280;2902;42.130;24.732;2022-08-21T09:55:18;98758.16;;;27.00;78.07
5755;BME280;2902;42.130;24.732;2022-08-21T09:58:00;98762.47;;;26.93;78.20
5755;BME280;2902;42.130;24.732;2022-08-21T10:00:30;98765.38;;;26.96;77.90
5755;BME280;2902;42.130;24.732;2022-08-21T10:03:16;98761.19;;;26.99;77.33
5755;BME280;2902;42.130;24.732;2022-08-21T10:05:55;98771.78;;;26.92;76.95
5755;BME280;2902;42.130;24.732;2022-08-21T10:08:25;98767.34;;;26.57;77.74
5755;BME280;2902;42.130;24.732;2022-08-21T10:10:56;98774.38;;;26.41;78.39
5755;BME280;2902;42.130;24.732;2022-08-21T10:13:35;98774.03;;;26.34;79.47
5755;BME280;2902;42.130;24.732;2022-08-21T10:16:15;98765.66;;;26.22;81.34
5755;BME280;2902;42.130;24.732;2022-08-21T10:18:53;98757.47;;;26.22;82.68
5755;BME280;2902;42.130;24.732;2022-08-21T10:21:27;98744.84;;;26.26;83.16
5755;BME280;2902;42.130;24.732;2022-08-21T10:24:05;98756.41;;;26.31;83.38
5755;BME280;2902;42.130;24.732;2022-08-21T10:26:47;98757.69;;;26.34;84.13
5755;BME280;2902;42.130;24.732;2022-08-21T10:29:28;98746.94;;;26.29;84.65
5755;BME280;2902;42.130;24.732;2022-08-21T10:32:05;98760.06;;;26.27;83.68
5755;BME280;2902;42.130;24.732;2022-08-21T10:34:43;98757.94;;;26.15;84.62
5755;BME280;2902;42.130;24.732;2022-08-21T10:37:26;98760.53;;;26.20;84.19
5755;BME280;2902;42.130;24.732;2022-08-21T10:40:06;98764.81;;;26.13;83.83
5755;BME280;2902;42.130;24.732;2022-08-21T10:42:39;98759.91;;;25.93;85.16
5755;BME280;2902;42.130;24.732;2022-08-21T10:45:15;98763.13;;;25.95;85.15
5755;BME280;2902;42.130;24.732;2022-08-21T10:47:48;98759.81;;;25.76;85.66
5755;BME280;2902;42.130;24.732;2022-08-21T10:50:25;98773.81;;;25.61;86.29
5755;BME280;2902;42.130;24.732;2022-08-21T10:53:09;98762.56;;;25.54;86.64
5755;BME280;2902;42.130;24.732;2022-08-21T10:55:41;98766.75;;;25.38;87.26
5755;BME280;2902;42.130;24.732;2022-08-21T10:58:12;98762.94;;;25.39;86.47
5755;BME280;2902;42.130;24.732;2022-08-21T11:00:45;98762.81;;;25.44;86.54
5755;BME280;2902;42.130;24.732;2022-08-21T11:03:16;98761.47;;;25.33;87.15
5755;BME280;2902;42.130;24.732;2022-08-21T11:05:47;98760.47;;;25.29;87.21
5755;BME280;2902;42.130;24.732;2022-08-21T11:08:20;98755.03;;;25.29;87.47
5755;BME280;2902;42.130;24.732;2022-08-21T11:10:53;98766.31;;;25.44;87.81
5755;BME280;2902;42.130;24.732;2022-08-21T11:13:27;98761.94;;;25.57;86.93
5755;BME280;2902;42.130;24.732;2022-08-21T11:16:01;98759.06;;;25.53;85.39
5755;BME280;2902;42.130;24.732;2022-08-21T11:18:32;98758.91;;;25.58;86.90
5755;BME280;2902;42.130;24.732;2022-08-21T11:21:06;98753.03;;;25.65;86.51
5755;BME280;2902;42.130;24.732;2022-08-21T11:23:42;98755.44;;;25.66;87.66
5755;BME280;2902;42.130;24.732;2022-08-21T11:26:15;98756.88;;;25.64;87.24
5755;BME280;2902;42.130;24.732;2022-08-21T11:28:48;98746.16;;;25.67;86.94
5755;BME280;2902;42.130;24.732;2022-08-21T11:31:35;98745.47;;;25.62;88.13
5755;BME280;2902;42.130;24.732;2022-08-21T11:34:16;98756.13;;;25.72;85.83
5755;BME280;2902;42.130;24.732;2022-08-21T11:36:56;98754.25;;;25.89;86.30
5755;BME280;2902;42.130;24.732;2022-08-21T11:39:33;98751.97;;;26.05;84.54
5755;BME280;2902;42.130;24.732;2022-08-21T11:42:08;98745.47;;;26.14;83.67
5755;BME280;2902;42.130;24.732;2022-08-21T11:44:48;98748.66;;;26.16;83.97
5755;BME280;2902;42.130;24.732;2022-08-21T11:47:21;98740.56;;;25.94;84.90
5755;BME280;2902;42.130;24.732;2022-08-21T11:49:57;98739.66;;;25.77;84.81
5755;BME280;2902;42.130;24.732;2022-08-21T11:52:31;98736.25;;;25.71;85.97
5755;BME280;2902;42.130;24.732;2022-08-21T11:55:06;98734.47;;;25.67;85.96
5755;BME280;2902;42.130;24.732;2022-08-21T11:57:36;98736.34;;;25.58;86.93
5755;BME280;2902;42.130;24.732;2022-08-21T12:00:11;98733.75;;;25.53;86.05
5755;BME280;2902;42.130;24.732;2022-08-21T12:02:43;98736.59;;;25.48;87.32
5755;BME280;2902;42.130;24.732;2022-08-21T12:05:25;98733.38;;;25.46;86.58
5755;BME280;2902;42.130;24.732;2022-08-21T12:08:03;98722.94;;;25.39;86.39
5755;BME280;2902;42.130;24.732;2022-08-21T12:10:36;98722.03;;;25.44;86.85
5755;BME280;2902;42.130;24.732;2022-08-21T12:13:10;98717.38;;;25.44;86.85
5755;BME280;2902;42.130;24.732;2022-08-21T12:15:39;98711.28;;;25.39;87.49
5755;BME280;2902;42.130;24.732;2022-08-21T12:18:22;98713.88;;;25.44;88.11
5755;BME280;2902;42.130;24.732;2022-08-21T12:21:05;98702.00;;;25.40;86.77
5755;BME280;2902;42.130;24.732;2022-08-21T12:23:46;98696.56;;;25.40;87.27
5755;BME280;2902;42.130;24.732;2022-08-21T12:26:22;98696.94;;;25.47;88.28
5755;BME280;2902;42.130;24.732;2022-08-21T12:28:49;98706.19;;;25.46;87.84
5755;BME280;2902;42.130;24.732;2022-08-21T12:31:21;98699.97;;;25.45;86.90
5755;BME280;2902;42.130;24.732;2022-08-21T12:33:55;98703.97;;;25.48;86.43
5755;BME280;2902;42.130;24.732;2022-08-21T12:36:27;98692.34;;;25.34;86.43
5755;BME280;2902;42.130;24.732;2022-08-21T12:39:01;98689.00;;;25.28;87.65
5755;BME280;2902;42.130;24.732;2022-08-21T12:41:37;98694.16;;;25.38;87.13
5755;BME280;2902;42.130;24.732;2022-08-21T12:44:10;98695.94;;;25.43;87.82
5755;BME280;2902;42.130;24.732;2022-08-21T12:46:43;98693.72;;;25.45;87.87
5755;BME280;2902;42.130;24.732;2022-08-21T12:49:14;98677.75;;;25.52;87.50
5755;BME280;2902;42.130;24.732;2022-08-21T12:51:49;98670.59;;;25.64;87.08
5755;BME280;2902;42.130;24.732;2022-08-21T12:54:27;98665.69;;;25.75;87.37
5755;BME280;2902;42.130;24.732;2022-08-21T12:57:01;98666.38;;;25.89;86.92
5755;BME280;2902;42.130;24.732;2022-08-21T12:59:28;98664.13;;;25.91;85.55
5755;BME280;2902;42.130;24.732;2022-08-21T13:01:56;98673.56;;;25.85;83.35
5755;BME280;2902;42.130;24.732;2022-08-21T13:04:33;98668.16;;;25.93;83.72
5755;BME280;2902;42.130;24.732;2022-08-21T13:07:05;98668.22;;;26.02;82.67
5755;BME280;2902;42.130;24.732;2022-08-21T13:09:41;98672.06;;;26.09;82.00
5755;BME280;2902;42.130;24.732;2022-08-21T13:12:11;98667.78;;;26.17;81.48
5755;BME280;2902;42.130;24.732;2022-08-21T13:14:39;98668.75;;;26.21;82.29
5755;BME280;2902;42.130;24.732;2022-08-21T13:17:07;98669.06;;;26.28;82.32
5755;BME280;2902;42.130;24.732;2022-08-21T13:19:35;98671.47;;;26.29;80.47
5755;BME280;2902;42.130;24.732;2022-08-21T13:22:03;98674.56;;;26.45;79.79
5755;BME280;2902;42.130;24.732;2022-08-21T13:24:32;98666.25;;;26.58;80.20